createdAt,value
2022-08-22T18:22:46.223Z,35
2022-08-22T18:23:46.643Z,35
2022-08-22T18:24:02.533Z,35
2022-08-22T18:24:50.263Z,36
2022-08-22T18:25:50.741Z,36
2022-08-22T18:26:51.729Z,36
2022-08-22T18:27:52.124Z,36
2022-08-22T18:28:52.523Z,36
2022-08-22T18:29:53.332Z,36
2022-08-22T18:30:54.251Z,36
2022-08-22T18:31:54.649Z,36
2022-08-22T18:32:55.037Z,37
2022-08-22T18:33:56.352Z,37
2022-08-22T18:34:57.072Z,37
2022-08-22T18:36:01.622Z,37
2022-08-22T18:37:02.025Z,37
2022-08-22T18:38:02.844Z,36
2022-08-22T18:39:03.594Z,36
2022-08-22T18:40:04.365Z,37
2022-08-22T18:41:04.800Z,37
2022-08-22T18:42:05.209Z,37
2022-08-22T18:43:07.622Z,38
2022-08-22T18:44:08.055Z,37
2022-08-22T18:45:08.836Z,37
2022-08-22T18:46:09.263Z,37
2022-08-22T18:47:09.634Z,37
2022-08-22T18:48:10.034Z,37
2022-08-22T18:49:15.829Z,37
2022-08-22T18:50:16.880Z,37
2022-08-22T18:51:24.839Z,37
2022-08-22T18:52:25.464Z,37
2022-08-22T18:53:26.212Z,37
2022-08-22T18:54:26.624Z,37
2022-08-22T18:55:27.361Z,37
2022-08-22T18:56:27.733Z,37
2022-08-22T18:57:28.108Z,37
2022-08-22T18:58:28.512Z,37
2022-08-22T18:59:28.884Z,37
2022-08-22T19:00:29.695Z,37
2022-08-22T19:01:40.683Z,37
2022-08-22T19:02:48.107Z,37
2022-08-22T19:03:51.501Z,37
2022-08-22T19:04:51.913Z,37
2022-08-22T19:05:52.733Z,37
2022-08-22T19:06:53.139Z,37
2022-08-22T19:07:53.505Z,38
2022-08-22T19:08:54.317Z,38
2022-08-22T19:09:54.716Z,38
2022-08-22T19:10:55.491Z,38
2022-08-22T19:11:55.881Z,38
2022-08-22T19:12:56.341Z,38
2022-08-22T19:13:56.802Z,38
2022-08-22T19:14:57.209Z,39
2022-08-22T19:15:57.990Z,39
2022-08-22T19:16:58.381Z,39
2022-08-22T19:17:59.491Z,39
2022-08-22T19:19:00.134Z,39
2022-08-22T19:20:00.545Z,39
2022-08-22T19:21:01.251Z,39
2022-08-22T19:22:01.654Z,39
2022-08-22T19:23:02.176Z,39
2022-08-22T19:24:02.995Z,39
2022-08-22T19:25:03.392Z,39
2022-08-22T19:26:04.136Z,39
2022-08-22T19:27:04.541Z,39
2022-08-22T19:28:04.954Z,39
2022-08-22T19:29:10.074Z,39
2022-08-22T19:30:11.114Z,40
2022-08-22T19:31:16.414Z,40
2022-08-22T19:32:17.030Z,40
2022-08-22T19:33:17.431Z,40
2022-08-22T19:34:17.833Z,40
2022-08-22T19:35:18.236Z,40
2022-08-22T19:36:19.037Z,40
2022-08-22T19:37:32.496Z,40
2022-08-22T19:38:34.295Z,40
2022-08-22T19:39:35.040Z,40
2022-08-22T19:40:36.349Z,40
2022-08-22T19:41:37.149Z,40
2022-08-22T19:42:37.527Z,40
2022-08-22T19:43:37.916Z,40
2022-08-22T19:44:38.292Z,40
2022-08-22T19:45:38.659Z,40
2022-08-22T19:46:39.387Z,40
2022-08-22T19:47:39.806Z,40
2022-08-22T19:48:40.213Z,40
2022-08-22T19:49:40.613Z,40
2022-08-22T19:50:40.988Z,40
2022-08-22T19:51:41.663Z,40
2022-08-22T19:52:42.051Z,40
2022-08-22T19:53:42.457Z,40
2022-08-22T19:54:43.288Z,40
2022-08-22T19:55:43.687Z,40
2022-08-22T19:56:44.490Z,41
2022-08-22T19:57:44.864Z,41
2022-08-22T19:58:45.249Z,41
2022-08-22T19:59:50.767Z,41
2022-08-22T20:00:53.601Z,41
2022-08-22T20:01:54.345Z,41
2022-08-22T20:02:54.791Z,41
2022-08-22T20:03:55.244Z,41
2022-08-22T20:04:55.612Z,41
2022-08-22T20:05:56.637Z,41
2022-08-22T20:06:58.433Z,41
2022-08-22T20:07:58.804Z,41
2022-08-22T20:08:59.214Z,41
2022-08-22T20:09:59.898Z,41
2022-08-22T20:11:00.326Z,41
2022-08-22T20:12:01.063Z,41
2022-08-22T20:13:01.628Z,41
2022-08-22T20:14:02.110Z,41
2022-08-22T20:15:02.484Z,41
2022-08-22T20:16:02.874Z,41
2022-08-22T20:17:03.579Z,41
2022-08-22T20:19:34.357Z,42
2022-08-22T20:20:36.574Z,42
2022-08-22T20:21:38.980Z,42
2022-08-22T20:22:40.036Z,42
2022-08-22T20:23:40.448Z,42
2022-08-22T20:24:40.817Z,42
2022-08-22T20:25:43.863Z,42
2022-08-22T20:27:10.124Z,42
2022-08-22T20:28:13.824Z,42
2022-08-22T20:29:14.224Z,44
2022-08-22T20:30:14.652Z,44
2022-08-22T20:31:15.049Z,44
2022-08-22T20:32:15.434Z,44
2022-08-22T20:33:16.234Z,44
2022-08-22T20:34:16.631Z,44
2022-08-22T20:35:17.107Z,44
2022-08-22T20:36:27.899Z,44
2022-08-22T20:37:40.347Z,44
2022-08-22T20:39:03.815Z,44
2022-08-22T20:40:04.266Z,44
2022-08-22T20:41:11.444Z,44
2022-08-22T20:42:12.685Z,44
2022-08-22T20:43:13.379Z,44
2022-08-22T20:44:18.488Z,45
2022-08-22T20:45:18.996Z,45
2022-08-22T20:46:21.249Z,45
2022-08-22T20:47:24.373Z,45
2022-08-22T20:48:25.261Z,45
2022-08-22T20:49:25.633Z,45
2022-08-22T20:50:26.073Z,45
2022-08-22T20:51:28.206Z,45
2022-08-22T20:52:28.928Z,45
2022-08-22T20:53:29.289Z,45
2022-08-22T20:54:29.668Z,45
2022-08-22T20:55:31.452Z,45
2022-08-22T20:56:32.803Z,45
2022-08-22T20:57:33.452Z,45
2022-08-22T20:58:33.851Z,45
2022-08-22T20:59:37.916Z,45
2022-08-22T21:00:38.325Z,45
2022-08-22T21:01:38.740Z,45
2022-08-22T21:02:39.549Z,46
2022-08-22T21:03:39.949Z,46
2022-08-22T21:04:42.693Z,46
2022-08-22T21:05:43.358Z,46
2022-08-22T21:06:43.723Z,46
2022-08-22T21:07:44.521Z,46
2022-08-22T21:08:44.939Z,46
2022-08-22T21:09:45.340Z,46
2022-08-22T21:10:45.748Z,46
2022-08-22T21:11:46.548Z,46
2022-08-22T21:12:47.286Z,46
2022-08-22T21:13:47.683Z,46
2022-08-22T21:14:48.079Z,46
2022-08-22T21:15:48.446Z,46
2022-08-22T21:16:48.820Z,46
2022-08-22T21:17:49.640Z,46
2022-08-22T21:18:50.060Z,46
2022-08-22T21:19:50.462Z,46
2022-08-22T21:20:50.832Z,46
2022-08-22T21:21:51.200Z,46
2022-08-22T21:22:51.917Z,46
2022-08-22T21:23:52.277Z,46
2022-08-22T21:24:52.672Z,46
2022-08-22T21:25:53.031Z,46
2022-08-22T21:26:53.763Z,46
2022-08-22T21:27:54.627Z,47
2022-08-22T21:28:55.061Z,47
2022-08-22T21:29:55.459Z,47
2022-08-22T21:30:55.834Z,47
2022-08-22T21:31:59.076Z,47
2022-08-22T21:33:05.359Z,47
2022-08-22T21:34:05.732Z,47
2022-08-22T21:35:06.173Z,47
2022-08-22T21:36:06.591Z,47
2022-08-22T21:37:06.986Z,47
2022-08-22T21:38:07.766Z,47
2022-08-22T21:39:08.134Z,47
2022-08-22T21:40:08.554Z,47
2022-08-22T21:41:19.351Z,47
2022-08-22T21:42:20.401Z,48
2022-08-22T21:43:21.143Z,48
2022-08-22T21:44:21.545Z,48
2022-08-22T21:45:21.909Z,48
2022-08-22T21:46:22.279Z,48
2022-08-22T21:47:30.832Z,48
2022-08-22T21:48:32.140Z,48
2022-08-22T21:49:32.586Z,48
2022-08-22T21:50:32.946Z,48
2022-08-22T21:51:33.313Z,48
2022-08-22T21:52:33.739Z,48
2022-08-22T21:53:34.552Z,48
2022-08-22T21:54:37.607Z,48
2022-08-22T21:55:38.007Z,48
2022-08-22T21:56:38.417Z,49
2022-08-22T21:57:39.174Z,49
2022-08-22T21:58:39.852Z,49
2022-08-22T21:59:50.595Z,49
2022-08-22T22:00:52.856Z,49
2022-08-22T22:01:53.515Z,49
2022-08-22T22:02:55.903Z,49
2022-08-22T22:03:57.345Z,49
2022-08-22T22:04:57.749Z,49
2022-08-22T22:05:58.123Z,49
2022-08-22T22:06:58.485Z,49
2022-08-22T22:07:59.054Z,50
2022-08-22T22:08:59.875Z,50
2022-08-22T22:10:00.290Z,50
2022-08-22T22:11:00.652Z,51
2022-08-22T22:12:01.031Z,51
2022-08-22T22:13:01.712Z,51
2022-08-22T22:14:02.460Z,51
2022-08-22T22:15:02.832Z,51
2022-08-22T22:16:03.229Z,51
2022-08-22T22:17:03.602Z,51
2022-08-22T22:18:04.018Z,51
2022-08-22T22:19:04.825Z,52
2022-08-22T22:20:05.224Z,52
2022-08-22T22:21:05.617Z,52
2022-08-22T22:22:06.024Z,52
2022-08-22T22:23:06.408Z,52
2022-08-22T22:24:07.197Z,52
2022-08-22T22:25:39.061Z,52
2022-08-22T22:26:42.329Z,53
2022-08-22T22:27:42.691Z,53
2022-08-22T22:28:43.428Z,53
2022-08-22T22:29:44.263Z,53
2022-08-22T22:30:44.660Z,53
2022-08-22T22:31:45.082Z,53
2022-08-22T22:32:45.457Z,53
2022-08-22T22:33:47.495Z,54
2022-08-22T22:34:48.314Z,54
2022-08-22T22:35:48.687Z,54
2022-08-22T22:36:49.086Z,54
2022-08-22T22:37:49.498Z,54
2022-08-22T22:38:51.636Z,54
2022-08-22T22:39:52.907Z,54
2022-08-22T22:40:53.347Z,54
2022-08-22T22:41:53.740Z,54
2022-08-22T22:42:54.101Z,54
2022-08-22T22:43:54.829Z,54
2022-08-22T22:44:55.537Z,54
2022-08-22T22:45:56.607Z,54
2022-08-22T22:46:57.039Z,55
2022-08-22T22:47:57.405Z,55
2022-08-22T22:48:57.769Z,55
2022-08-22T22:49:58.521Z,55
2022-08-22T22:50:58.926Z,55
2022-08-22T22:51:59.334Z,55
2022-08-22T22:52:59.722Z,55
2022-08-22T22:54:00.138Z,56
2022-08-22T22:55:01.488Z,56
2022-08-22T22:56:02.476Z,56
2022-08-22T22:57:02.876Z,56
2022-08-22T22:58:04.610Z,56
2022-08-22T22:59:12.776Z,56
2022-08-22T23:00:14.026Z,56
2022-08-22T23:01:14.513Z,56
2022-08-22T23:02:14.932Z,56
2022-08-22T23:03:15.332Z,56
2022-08-22T23:04:15.756Z,56
2022-08-22T23:05:16.436Z,56
2022-08-22T23:06:16.856Z,56
2022-08-22T23:07:17.221Z,57
2022-08-22T23:08:17.632Z,57
2022-08-22T23:09:18.039Z,57
2022-08-22T23:10:21.960Z,57
2022-08-22T23:11:22.700Z,57
2022-08-22T23:12:23.086Z,57
2022-08-22T23:13:23.491Z,57
2022-08-22T23:14:24.258Z,57
2022-08-22T23:15:25.078Z,57
2022-08-22T23:16:25.458Z,57
2022-08-22T23:17:25.854Z,57
2022-08-22T23:18:30.209Z,57
2022-08-22T23:19:31.125Z,57
2022-08-22T23:20:31.860Z,58
2022-08-22T23:21:32.276Z,58
2022-08-22T23:22:32.703Z,58
2022-08-22T23:23:33.107Z,58
2022-08-22T23:24:33.798Z,58
2022-08-22T23:25:34.203Z,58
2022-08-22T23:26:34.573Z,58
2022-08-22T23:27:37.051Z,58
2022-08-22T23:28:37.462Z,58
2022-08-22T23:29:38.259Z,58
2022-08-22T23:30:38.657Z,58
2022-08-22T23:31:39.031Z,59
2022-08-22T23:32:39.403Z,59
2022-08-22T23:33:39.809Z,59
2022-08-22T23:34:40.654Z,59
2022-08-22T23:35:41.066Z,59
2022-08-22T23:36:41.474Z,59
2022-08-22T23:37:41.864Z,59
2022-08-22T23:38:42.283Z,59
2022-08-22T23:39:43.116Z,59
2022-08-22T23:40:43.511Z,59
2022-08-22T23:41:43.912Z,59
2022-08-22T23:42:46.830Z,59
2022-08-22T23:43:47.225Z,59
2022-08-22T23:44:47.905Z,59
2022-08-22T23:45:48.294Z,59
2022-08-22T23:46:48.664Z,60
2022-08-22T23:47:49.028Z,60
2022-08-22T23:48:49.449Z,60
2022-08-22T23:49:50.267Z,60
2022-08-22T23:50:50.632Z,60
2022-08-22T23:51:51.034Z,60
2022-08-22T23:52:51.405Z,60
2022-08-22T23:53:51.778Z,60
2022-08-22T23:54:55.785Z,60
2022-08-22T23:55:56.372Z,61
2022-08-22T23:56:56.756Z,61
2022-08-22T23:57:58.136Z,61
2022-08-22T23:58:58.709Z,61
